createdAt,value
2023-02-10T00:01:25.609Z,-1.32
2023-02-10T00:03:53.844Z,-1.31
2023-02-10T00:06:22.557Z,-1.35
2023-02-10T00:08:51.281Z,-1.40
2023-02-10T00:11:19.143Z,-1.39
2023-02-10T00:13:47.062Z,-1.37
2023-02-10T00:16:16.382Z,-1.40
2023-02-10T00:18:44.363Z,-1.44
2023-02-10T00:21:14.825Z,-1.47
2023-02-10T00:23:42.598Z,-1.50
2023-02-10T00:26:11.872Z,-1.55
2023-02-10T00:28:39.787Z,-1.55
2023-02-10T00:31:11.866Z,-1.55
2023-02-10T00:33:39.824Z,-1.54
2023-02-10T00:36:08.782Z,-1.56
2023-02-10T00:38:36.742Z,-1.58
2023-02-10T00:41:11.425Z,-1.59
2023-02-10T00:43:41.551Z,-1.61
2023-02-10T00:46:09.498Z,-1.64
2023-02-10T00:48:37.363Z,-1.66
2023-02-10T00:51:05.507Z,-1.69
2023-02-10T00:53:33.557Z,-1.72
2023-02-10T00:56:01.265Z,-1.70
2023-02-10T00:58:29.072Z,-1.72
2023-02-10T01:00:57.042Z,-1.76
2023-02-10T01:03:25.089Z,-1.78
2023-02-10T01:05:53.040Z,-1.81
2023-02-10T01:08:21.001Z,-1.86
2023-02-10T01:10:48.954Z,-1.87
2023-02-10T01:13:17.201Z,-1.87
2023-02-10T01:15:46.842Z,-1.87
2023-02-10T01:18:14.940Z,-1.86
2023-02-10T01:20:43.183Z,-1.88
2023-02-10T01:23:11.106Z,-1.89
2023-02-10T01:25:39.094Z,-1.89
2023-02-10T01:28:07.310Z,-1.91
2023-02-10T01:30:35.465Z,-1.87
2023-02-10T01:33:03.409Z,-1.89
2023-02-10T01:35:31.224Z,-1.88
2023-02-10T01:37:59.272Z,-1.87
2023-02-10T01:40:27.514Z,-1.88
2023-02-10T01:42:55.542Z,-1.86
2023-02-10T01:45:29.592Z,-1.84
2023-02-10T01:47:57.718Z,-1.80
2023-02-10T01:50:29.024Z,-1.86
2023-02-10T01:52:56.994Z,-1.88
2023-02-10T01:55:27.435Z,-1.91
2023-02-10T01:57:58.030Z,-1.90
2023-02-10T02:00:26.358Z,-1.87
2023-02-10T02:02:54.254Z,-1.86
2023-02-10T02:05:31.368Z,-1.85
2023-02-10T02:08:08.804Z,-1.87
2023-02-10T02:10:45.126Z,-1.81
2023-02-10T02:13:28.656Z,-1.80
2023-02-10T02:16:21.117Z,-1.86
2023-02-10T02:19:14.648Z,-1.90
2023-02-10T02:22:07.053Z,-1.89
2023-02-10T02:24:46.560Z,-1.88
2023-02-10T02:27:33.370Z,-1.85
2023-02-10T02:30:07.168Z,-1.83
2023-02-10T02:32:55.792Z,-1.81
2023-02-10T02:35:28.531Z,-1.79
2023-02-10T02:37:56.473Z,-1.83
2023-02-10T02:40:24.288Z,-1.83
2023-02-10T02:42:52.364Z,-1.85
2023-02-10T02:45:22.612Z,-1.84
2023-02-10T02:48:19.563Z,-1.87
2023-02-10T02:51:08.110Z,-1.91
2023-02-10T02:53:42.201Z,-1.92
2023-02-10T02:56:31.276Z,-1.92
2023-02-10T02:59:11.531Z,-1.93
2023-02-10T03:01:44.419Z,-1.93
2023-02-10T03:04:14.191Z,-1.95
2023-02-10T03:06:42.020Z,-1.97
2023-02-10T03:09:09.817Z,-2.00
2023-02-10T03:11:37.599Z,-2.04
2023-02-10T03:14:05.362Z,-2.04
2023-02-10T03:16:33.203Z,-2.05
2023-02-10T03:19:01.439Z,-2.06
2023-02-10T03:21:29.244Z,-2.06
2023-02-10T03:23:56.980Z,-2.05
2023-02-10T03:26:24.780Z,-2.05
2023-02-10T03:28:52.662Z,-2.09
2023-02-10T03:31:20.475Z,-2.09
2023-02-10T03:33:48.274Z,-2.12
2023-02-10T03:36:16.445Z,-2.12
2023-02-10T03:38:44.257Z,-2.17
2023-02-10T03:41:12.286Z,-2.20
2023-02-10T03:43:40.070Z,-2.18
2023-02-10T03:46:07.964Z,-2.19
2023-02-10T03:48:35.795Z,-2.20
2023-02-10T03:51:04.979Z,-2.24
2023-02-10T03:53:32.933Z,-2.24
2023-02-10T03:56:00.815Z,-2.23
2023-02-10T03:58:28.602Z,-2.24
2023-02-10T04:00:56.398Z,-2.28
2023-02-10T04:03:24.294Z,-2.27
2023-02-10T04:05:52.179Z,-2.29
2023-02-10T04:08:20.155Z,-2.31
2023-02-10T04:10:47.928Z,-2.33
2023-02-10T04:13:15.757Z,-2.36
2023-02-10T04:15:43.689Z,-2.39
2023-02-10T04:18:11.490Z,-2.43
2023-02-10T04:20:39.368Z,-2.45
2023-02-10T04:23:07.166Z,-2.45
2023-02-10T04:25:35.109Z,-2.44
2023-02-10T04:28:02.907Z,-2.45
2023-02-10T04:30:30.824Z,-2.45
2023-02-10T04:32:58.693Z,-2.48
2023-02-10T04:35:26.591Z,-2.50
2023-02-10T04:37:54.408Z,-2.52
2023-02-10T04:40:22.215Z,-2.55
2023-02-10T04:42:50.423Z,-2.52
2023-02-10T04:45:18.201Z,-2.53
2023-02-10T04:47:46.073Z,-2.53
2023-02-10T04:50:14.026Z,-2.51
2023-02-10T04:52:41.868Z,-2.52
2023-02-10T04:55:09.708Z,-2.54
2023-02-10T04:57:37.473Z,-2.55
2023-02-10T05:00:06.972Z,-2.57
2023-02-10T05:02:34.815Z,-2.59
2023-02-10T05:05:02.694Z,-2.61
2023-02-10T05:07:30.616Z,-2.62
2023-02-10T05:09:59.078Z,-2.66
2023-02-10T05:12:27.062Z,-2.67
2023-02-10T05:14:54.812Z,-2.68
2023-02-10T05:17:22.627Z,-2.70
2023-02-10T05:19:50.545Z,-2.71
2023-02-10T05:22:18.326Z,-2.72
2023-02-10T05:24:46.087Z,-2.72
2023-02-10T05:27:13.828Z,-2.72
2023-02-10T05:29:41.686Z,-2.75
2023-02-10T05:32:09.586Z,-2.78
2023-02-10T05:34:37.524Z,-2.75
2023-02-10T05:37:05.274Z,-2.78
2023-02-10T05:39:33.008Z,-2.78
2023-02-10T05:42:00.962Z,-2.81
2023-02-10T05:44:30.602Z,-2.83
2023-02-10T05:46:58.455Z,-2.81
2023-02-10T05:49:26.455Z,-2.81
2023-02-10T05:51:55.215Z,-2.84
2023-02-10T05:54:23.054Z,-2.87
2023-02-10T05:56:52.252Z,-2.88
2023-02-10T05:59:20.199Z,-2.82
2023-02-10T06:01:48.094Z,-2.86
2023-02-10T06:04:15.984Z,-2.83
2023-02-10T06:06:43.851Z,-2.86
2023-02-10T06:09:11.682Z,-2.85
2023-02-10T06:11:39.532Z,-2.86
2023-02-10T06:14:07.369Z,-2.87
2023-02-10T06:16:35.363Z,-2.90
2023-02-10T06:19:03.251Z,-2.92
2023-02-10T06:21:31.127Z,-2.92
2023-02-10T06:23:59.089Z,-2.95
2023-02-10T06:26:27.669Z,-2.94
2023-02-10T06:28:56.291Z,-2.89
2023-02-10T06:31:24.519Z,-2.87
2023-02-10T06:33:52.338Z,-2.84
2023-02-10T06:36:20.256Z,-2.85
2023-02-10T06:38:49.936Z,-2.82
2023-02-10T06:41:18.184Z,-2.80
2023-02-10T06:43:46.044Z,-2.74
2023-02-10T06:46:15.204Z,-2.67
2023-02-10T06:48:43.095Z,-2.65
2023-02-10T06:51:11.013Z,-2.59
2023-02-10T06:53:39.577Z,-2.55
2023-02-10T06:56:07.971Z,-2.52
2023-02-10T06:58:35.742Z,-2.46
2023-02-10T07:01:08.225Z,-2.39
2023-02-10T07:03:36.514Z,-2.34
2023-02-10T07:06:04.307Z,-2.26
2023-02-10T07:08:32.324Z,-2.22
2023-02-10T07:11:00.201Z,-2.18
2023-02-10T07:13:28.104Z,-2.16
2023-02-10T07:15:55.986Z,-2.12
2023-02-10T07:18:23.940Z,-2.12
2023-02-10T07:20:51.926Z,-2.14
2023-02-10T07:23:34.221Z,-2.14
2023-02-10T07:26:04.023Z,-2.11
2023-02-10T07:28:32.004Z,-2.09
2023-02-10T07:30:59.925Z,-2.16
2023-02-10T07:33:28.396Z,-1.50
2023-02-10T07:35:56.526Z,-1.06
2023-02-10T07:38:24.382Z,-1.15
2023-02-10T07:40:52.145Z,-1.34
2023-02-10T07:43:20.077Z,-1.49
2023-02-10T07:45:48.208Z,-1.54
2023-02-10T07:48:16.249Z,-1.53
2023-02-10T07:50:44.122Z,-1.53
2023-02-10T07:53:12.398Z,-1.54
2023-02-10T07:55:40.203Z,-1.52
2023-02-10T07:58:08.125Z,-1.59
2023-02-10T08:00:36.424Z,-1.59
2023-02-10T08:03:04.327Z,-1.58
2023-02-10T08:05:32.354Z,-1.63
2023-02-10T08:08:00.186Z,-1.65
2023-02-10T08:10:28.040Z,-1.55
2023-02-10T08:12:55.888Z,-1.56
2023-02-10T08:15:24.765Z,-1.51
2023-02-10T08:17:52.642Z,-1.42
2023-02-10T08:20:20.516Z,-1.38
2023-02-10T08:22:48.348Z,-1.36
2023-02-10T08:25:16.115Z,-1.32
2023-02-10T08:27:43.945Z,-1.28
2023-02-10T08:30:13.640Z,-1.25
2023-02-10T08:32:41.450Z,-1.23
2023-02-10T08:35:09.438Z,-1.22
2023-02-10T08:37:37.444Z,-1.17
2023-02-10T08:40:07.704Z,-1.13
2023-02-10T08:42:35.681Z,-1.09
2023-02-10T08:45:03.509Z,-1.05
2023-02-10T08:47:31.329Z,-1.08
2023-02-10T08:49:59.122Z,-1.06
2023-02-10T08:52:27.067Z,-1.09
2023-02-10T08:54:54.913Z,-1.00
2023-02-10T08:57:22.788Z,-0.95
2023-02-10T08:59:50.637Z,-0.87
2023-02-10T09:02:18.499Z,-0.82
2023-02-10T09:04:48.379Z,-0.78
2023-02-10T09:07:19.653Z,-0.77
2023-02-10T09:09:47.434Z,-0.74
2023-02-10T09:12:15.327Z,-0.69
2023-02-10T09:14:43.342Z,-0.65
2023-02-10T09:17:11.498Z,-0.62
2023-02-10T09:19:39.777Z,-0.56
2023-02-10T09:22:07.712Z,-0.51
2023-02-10T09:24:35.733Z,-0.50
2023-02-10T09:27:03.511Z,-0.49
2023-02-10T09:29:31.524Z,-0.56
2023-02-10T09:31:59.503Z,-0.53
2023-02-10T09:34:27.578Z,-0.42
2023-02-10T09:36:59.473Z,-0.33
2023-02-10T09:39:27.753Z,-0.28
2023-02-10T09:42:30.697Z,-0.31
2023-02-10T09:45:01.956Z,-0.33
2023-02-10T09:48:04.912Z,-0.36
2023-02-10T09:51:08.104Z,-0.34
2023-02-10T09:53:35.994Z,-0.23
2023-02-10T09:56:05.272Z,-0.09
2023-02-10T09:58:40.286Z,0.06
2023-02-10T10:01:21.463Z,0.07
2023-02-10T10:03:55.520Z,0.27
2023-02-10T10:06:39.578Z,0.47
2023-02-10T10:09:10.754Z,0.84
2023-02-10T10:11:48.611Z,1.09
2023-02-10T10:14:21.713Z,1.28
2023-02-10T10:17:21.866Z,1.36
2023-02-10T10:19:58.372Z,1.50
2023-02-10T10:22:57.334Z,1.61
2023-02-10T10:25:50.294Z,1.84
2023-02-10T10:28:36.791Z,1.92
2023-02-10T10:31:18.749Z,2.03
2023-02-10T10:33:53.826Z,2.03
2023-02-10T10:36:37.944Z,2.22
2023-02-10T10:39:24.657Z,2.37
2023-02-10T10:41:52.510Z,2.40
2023-02-10T10:44:20.684Z,2.51
2023-02-10T10:46:52.168Z,2.63
2023-02-10T10:49:20.127Z,2.69
2023-02-10T10:51:50.119Z,2.67
2023-02-10T10:54:21.577Z,2.69
2023-02-10T10:56:53.866Z,2.90
2023-02-10T10:59:27.615Z,2.98
2023-02-10T11:01:55.400Z,3.07
2023-02-10T11:04:25.545Z,3.13
2023-02-10T11:07:01.488Z,3.30
2023-02-10T11:09:38.060Z,3.54
2023-02-10T11:12:39.951Z,3.86
2023-02-10T11:15:33.429Z,4.12
2023-02-10T11:18:02.077Z,4.46
2023-02-10T11:20:32.676Z,4.56
2023-02-10T11:23:17.597Z,4.86
2023-02-10T11:25:49.679Z,5.12
2023-02-10T11:28:20.664Z,5.32
2023-02-10T11:30:49.979Z,5.65
2023-02-10T11:33:22.463Z,5.78
2023-02-10T11:35:55.318Z,5.98
2023-02-10T11:38:23.878Z,6.17
2023-02-10T11:40:56.852Z,6.26
2023-02-10T11:43:37.474Z,6.35
2023-02-10T11:46:06.860Z,6.35
2023-02-10T11:48:34.944Z,6.52
2023-02-10T11:51:16.798Z,6.66
2023-02-10T11:53:45.177Z,6.63
2023-02-10T11:56:53.568Z,6.80
2023-02-10T11:59:42.425Z,6.84
2023-02-10T12:02:31.569Z,6.98
2023-02-10T12:05:14.878Z,7.01
2023-02-10T12:07:55.847Z,7.12
2023-02-10T12:10:44.615Z,7.62
2023-02-10T12:13:12.631Z,7.90
2023-02-10T12:15:54.403Z,8.00
2023-02-10T12:18:30.668Z,8.00
2023-02-10T12:21:12.804Z,8.06
2023-02-10T12:24:08.397Z,7.90
2023-02-10T12:26:51.383Z,7.84
2023-02-10T12:29:35.475Z,7.77
2023-02-10T12:32:18.546Z,7.74
2023-02-10T12:35:14.194Z,7.97
2023-02-10T12:37:57.258Z,8.13
2023-02-10T12:40:39.997Z,8.07
2023-02-10T12:43:10.690Z,8.17
2023-02-10T12:46:17.196Z,8.27
2023-02-10T12:48:54.152Z,8.39
2023-02-10T12:52:06.543Z,8.40
2023-02-10T12:54:54.464Z,8.41
2023-02-10T12:57:39.429Z,8.36
2023-02-10T13:00:37.039Z,8.37
2023-02-10T13:03:18.680Z,8.41
2023-02-10T13:06:21.995Z,8.47
2023-02-10T13:08:52.714Z,8.33
2023-02-10T13:11:57.285Z,8.24
2023-02-10T13:14:27.964Z,8.09
2023-02-10T13:16:57.422Z,8.01
2023-02-10T13:19:30.631Z,8.02
2023-02-10T13:22:04.368Z,7.90
2023-02-10T13:24:49.231Z,7.73
2023-02-10T13:27:36.222Z,7.74
2023-02-10T13:30:07.085Z,7.58
2023-02-10T13:33:05.621Z,7.52
2023-02-10T13:35:34.222Z,7.48
2023-02-10T13:38:07.788Z,7.55
2023-02-10T13:40:47.288Z,7.48
2023-02-10T13:43:38.187Z,7.49
2023-02-10T13:46:08.960Z,7.68
2023-02-10T13:48:37.202Z,7.78
2023-02-10T13:51:09.073Z,7.82
2023-02-10T13:53:36.788Z,7.75
2023-02-10T13:56:29.189Z,7.66
2023-02-10T13:59:06.865Z,7.53
2023-02-10T14:01:43.736Z,7.56
2023-02-10T14:04:23.468Z,7.53
2023-02-10T14:06:53.459Z,7.62
2023-02-10T14:09:23.459Z,7.68
2023-02-10T14:11:55.129Z,7.69
2023-02-10T14:14:30.911Z,7.68
2023-02-10T14:17:15.388Z,7.74
2023-02-10T14:19:45.967Z,7.86
2023-02-10T14:22:40.016Z,7.93
2023-02-10T14:25:19.390Z,7.88
2023-02-10T14:27:51.446Z,8.00
2023-02-10T14:30:22.312Z,8.14
2023-02-10T14:32:50.249Z,8.12
2023-02-10T14:35:29.051Z,8.24
2023-02-10T14:37:59.180Z,8.30
2023-02-10T14:40:27.896Z,8.21
2023-02-10T14:42:55.679Z,8.06
2023-02-10T14:45:30.035Z,8.06
2023-02-10T14:47:58.949Z,8.09
2023-02-10T14:50:31.755Z,8.24
2023-02-10T14:53:00.593Z,8.15
2023-02-10T14:55:29.888Z,7.96
2023-02-10T14:58:00.330Z,7.76
2023-02-10T15:00:28.192Z,7.57
2023-02-10T15:02:59.671Z,7.44
2023-02-10T15:05:28.463Z,7.34
2023-02-10T15:07:57.172Z,7.31
2023-02-10T15:10:45.351Z,7.18
2023-02-10T15:13:13.726Z,7.00
2023-02-10T15:15:43.362Z,6.88
2023-02-10T15:18:13.710Z,6.85
2023-02-10T15:20:42.412Z,6.79
2023-02-10T15:23:31.189Z,6.71
2023-02-10T15:26:07.395Z,6.60
2023-02-10T15:28:35.429Z,6.55
2023-02-10T15:31:09.901Z,6.42
2023-02-10T15:34:07.777Z,6.33
2023-02-10T15:36:36.704Z,6.26
2023-02-10T15:39:18.363Z,6.15
2023-02-10T15:41:47.447Z,6.07
2023-02-10T15:44:21.370Z,5.97
2023-02-10T15:46:52.553Z,5.89
2023-02-10T15:49:21.264Z,5.80
2023-02-10T15:51:53.332Z,5.69
2023-02-10T15:54:28.559Z,5.58
2023-02-10T15:57:00.880Z,5.49
2023-02-10T15:59:30.072Z,5.40
2023-02-10T16:01:58.706Z,5.32
2023-02-10T16:04:26.830Z,5.24
2023-02-10T16:06:54.634Z,5.18
2023-02-10T16:09:22.579Z,5.07
2023-02-10T16:11:50.341Z,5.00
2023-02-10T16:14:18.222Z,4.92
2023-02-10T16:16:54.423Z,4.86
2023-02-10T16:19:23.328Z,4.74
2023-02-10T16:21:51.430Z,4.65
2023-02-10T16:24:21.006Z,4.56
2023-02-10T16:26:49.070Z,4.47
2023-02-10T16:29:20.641Z,4.37
2023-02-10T16:31:48.797Z,4.29
2023-02-10T16:34:16.821Z,4.21
2023-02-10T16:36:46.943Z,4.14
2023-02-10T16:39:19.818Z,4.09
2023-02-10T16:41:48.600Z,4.07
2023-02-10T16:44:16.551Z,4.00
2023-02-10T16:46:44.943Z,3.94
2023-02-10T16:49:13.962Z,3.95
2023-02-10T16:51:42.316Z,3.92
2023-02-10T16:54:12.838Z,3.86
2023-02-10T16:56:41.772Z,3.71
2023-02-10T16:59:10.339Z,3.61
2023-02-10T17:01:38.281Z,3.57
2023-02-10T17:04:06.068Z,3.50
2023-02-10T17:06:34.028Z,3.42
2023-02-10T17:09:01.906Z,3.37
2023-02-10T17:11:32.613Z,3.27
2023-02-10T17:14:00.499Z,3.19
2023-02-10T17:16:39.055Z,3.12
2023-02-10T17:19:07.506Z,3.07
2023-02-10T17:21:35.309Z,2.93
2023-02-10T17:24:03.028Z,2.84
2023-02-10T17:26:30.893Z,2.79
2023-02-10T17:28:58.653Z,2.77
2023-02-10T17:31:26.894Z,2.69
2023-02-10T17:33:54.748Z,2.63
2023-02-10T17:36:25.764Z,2.55
2023-02-10T17:38:54.267Z,2.53
2023-02-10T17:41:23.676Z,2.50
2023-02-10T17:43:52.125Z,2.44
2023-02-10T17:46:20.638Z,2.40
2023-02-10T17:48:48.545Z,2.33
2023-02-10T17:51:20.995Z,2.25
2023-02-10T17:53:52.631Z,2.18
2023-02-10T17:56:21.772Z,2.11
2023-02-10T17:58:50.354Z,2.04
2023-02-10T18:01:22.605Z,2.04
2023-02-10T18:03:50.617Z,1.99
2023-02-10T18:06:19.280Z,1.90
2023-02-10T18:08:47.609Z,1.88
2023-02-10T18:11:15.757Z,1.82
2023-02-10T18:13:43.600Z,1.76
2023-02-10T18:16:11.501Z,1.70
2023-02-10T18:18:39.467Z,1.68
2023-02-10T18:21:07.438Z,1.64
2023-02-10T18:23:35.178Z,1.60
2023-02-10T18:26:02.985Z,1.52
2023-02-10T18:28:30.840Z,1.54
2023-02-10T18:31:01.649Z,1.54
2023-02-10T18:33:29.951Z,1.50
2023-02-10T18:35:57.847Z,1.44
2023-02-10T18:38:25.818Z,1.40
2023-02-10T18:40:56.956Z,1.35
2023-02-10T18:43:24.811Z,1.33
2023-02-10T18:45:53.286Z,1.25
2023-02-10T18:48:21.222Z,1.20
2023-02-10T18:50:49.882Z,1.16
2023-02-10T18:53:18.277Z,1.08
2023-02-10T18:55:49.781Z,1.02
2023-02-10T18:58:18.071Z,1.00
2023-02-10T19:00:46.346Z,0.99
2023-02-10T19:03:15.208Z,0.91
2023-02-10T19:05:43.033Z,0.91
2023-02-10T19:08:10.848Z,0.90
2023-02-10T19:10:39.436Z,0.85
2023-02-10T19:13:08.258Z,0.84
2023-02-10T19:15:36.079Z,0.83
2023-02-10T19:18:03.974Z,0.79
2023-02-10T19:20:31.861Z,0.75
2023-02-10T19:22:59.760Z,0.74
2023-02-10T19:25:27.707Z,0.71
2023-02-10T19:27:56.111Z,0.69
2023-02-10T19:30:24.100Z,0.67
2023-02-10T19:32:51.975Z,0.61
2023-02-10T19:35:19.858Z,0.61
2023-02-10T19:37:47.746Z,0.62
2023-02-10T19:40:15.876Z,0.59
2023-02-10T19:42:43.765Z,0.57
2023-02-10T19:45:11.689Z,0.55
2023-02-10T19:47:39.532Z,0.55
2023-02-10T19:50:07.658Z,0.55
2023-02-10T19:52:37.729Z,0.55
2023-02-10T19:55:07.150Z,0.56
2023-02-10T19:57:34.999Z,0.53
2023-02-10T20:00:03.009Z,0.52
2023-02-10T20:02:30.852Z,0.51
2023-02-10T20:04:58.688Z,0.52
2023-02-10T20:07:29.441Z,0.52
2023-02-10T20:09:58.331Z,0.47
2023-02-10T20:12:26.461Z,0.45
2023-02-10T20:14:54.609Z,0.43
2023-02-10T20:17:22.659Z,0.36
2023-02-10T20:19:50.787Z,0.35
2023-02-10T20:22:18.589Z,0.32
2023-02-10T20:24:46.424Z,0.31
2023-02-10T20:27:21.922Z,0.29
2023-02-10T20:29:50.909Z,0.23
2023-02-10T20:32:18.843Z,0.22
2023-02-10T20:34:46.733Z,0.19
2023-02-10T20:37:14.603Z,0.15
2023-02-10T20:39:42.513Z,0.10
2023-02-10T20:42:10.821Z,0.09
2023-02-10T20:44:39.041Z,0.07
2023-02-10T20:47:06.916Z,0.06
2023-02-10T20:49:34.786Z,0.05
2023-02-10T20:52:02.581Z,0.03
2023-02-10T20:54:31.034Z,0.04
2023-02-10T20:56:58.877Z,0.01
2023-02-10T20:59:27.029Z,-0.04
2023-02-10T21:01:54.997Z,-0.03
2023-02-10T21:04:23.123Z,-0.07
2023-02-10T21:06:52.505Z,-0.05
2023-02-10T21:09:20.392Z,-0.05
2023-02-10T21:11:48.351Z,-0.06
2023-02-10T21:14:16.399Z,-0.09
2023-02-10T21:16:44.478Z,-0.13
2023-02-10T21:19:15.669Z,-0.12
2023-02-10T21:21:43.523Z,-0.11
2023-02-10T21:24:11.357Z,-0.12
2023-02-10T21:26:39.219Z,-0.10
2023-02-10T21:29:07.432Z,-0.09
2023-02-10T21:31:39.085Z,-0.11
2023-02-10T21:34:08.618Z,-0.12
2023-02-10T21:36:37.239Z,-0.11
2023-02-10T21:39:06.342Z,-0.16
2023-02-10T21:41:42.501Z,-0.18
2023-02-10T21:44:18.883Z,-0.21
2023-02-10T21:46:48.085Z,-0.27
2023-02-10T21:49:16.378Z,-0.28
2023-02-10T21:51:44.363Z,-0.30
2023-02-10T21:54:12.409Z,-0.31
2023-02-10T21:56:40.308Z,-0.33
2023-02-10T21:59:12.843Z,-0.33
2023-02-10T22:01:41.021Z,-0.35
2023-02-10T22:04:09.037Z,-0.37
2023-02-10T22:06:38.929Z,-0.38
2023-02-10T22:09:08.541Z,-0.39
2023-02-10T22:11:36.463Z,-0.44
2023-02-10T22:14:05.070Z,-0.45
2023-02-10T22:16:33.142Z,-0.51
2023-02-10T22:19:01.418Z,-0.56
2023-02-10T22:21:29.598Z,-0.58
2023-02-10T22:23:58.097Z,-0.62
2023-02-10T22:26:27.974Z,-0.59
2023-02-10T22:29:00.660Z,-0.64
2023-02-10T22:31:31.609Z,-0.63
2023-02-10T22:34:06.932Z,-0.63
2023-02-10T22:36:35.238Z,-0.62
2023-02-10T22:39:03.339Z,-0.62
2023-02-10T22:41:31.975Z,-0.62
2023-02-10T22:44:01.036Z,-0.64
2023-02-10T22:46:29.295Z,-0.65
2023-02-10T22:48:58.062Z,-0.67
2023-02-10T22:51:27.700Z,-0.70
2023-02-10T22:53:56.858Z,-0.68
2023-02-10T22:56:25.961Z,-0.65
2023-02-10T22:58:53.923Z,-0.64
2023-02-10T23:01:44.919Z,-0.71
2023-02-10T23:04:19.109Z,-0.76
2023-02-10T23:06:47.085Z,-0.77
2023-02-10T23:09:15.520Z,-0.77
2023-02-10T23:11:46.210Z,-0.78
2023-02-10T23:14:14.373Z,-0.76
2023-02-10T23:16:42.488Z,-0.76
2023-02-10T23:19:10.666Z,-0.76
2023-02-10T23:21:38.482Z,-0.81
2023-02-10T23:24:07.439Z,-0.85
2023-02-10T23:26:35.655Z,-0.87
2023-02-10T23:29:06.188Z,-0.92
2023-02-10T23:31:34.208Z,-0.93
2023-02-10T23:34:02.316Z,-0.92
2023-02-10T23:36:30.540Z,-0.89
2023-02-10T23:38:58.712Z,-0.92
2023-02-10T23:41:26.708Z,-0.90
2023-02-10T23:43:54.669Z,-0.94
2023-02-10T23:46:22.584Z,-0.97
2023-02-10T23:48:50.470Z,-1.01
2023-02-10T23:51:20.244Z,-0.99
2023-02-10T23:53:48.329Z,-1.01
2023-02-10T23:56:17.007Z,-1.03
2023-02-10T23:58:45.124Z,-1.05
